sensor_id;sensor_type;location;lat;lon;timestamp;temperature;humidity
13980;DHT22;73871;49.900;8.594;2024-01-27T00:02:12;5.30;99.90
13980;DHT22;73871;49.900;8.594;2024-01-27T00:04:38;5.20;99.90
13980;DHT22;73871;49.900;8.594;2024-01-27T00:07:05;5.20;99.90
13980;DHT22;73871;49.900;8.594;2024-01-27T00:09:32;5.20;99.90
13980;DHT22;73871;49.900;8.594;2024-01-27T00:11:59;5.30;99.90
13980;DHT22;73871;49.900;8.594;2024-01-27T00:14:26;5.30;99.90
13980;DHT22;73871;49.900;8.594;2024-01-27T00:16:53;5.40;99.90
13980;DHT22;73871;49.900;8.594;2024-01-27T00:19:20;5.50;99.90
13980;DHT22;73871;49.900;8.594;2024-01-27T00:21:47;5.60;99.90
13980;DHT22;73871;49.900;8.594;2024-01-27T00:24:14;5.60;99.90
13980;DHT22;73871;49.900;8.594;2024-01-27T00:26:40;5.50;99.90
13980;DHT22;73871;49.900;8.594;2024-01-27T00:29:07;5.50;99.90
13980;DHT22;73871;49.900;8.594;2024-01-27T00:31:34;5.40;99.90
13980;DHT22;73871;49.900;8.594;2024-01-27T00:34:01;5.30;99.90
13980;DHT22;73871;49.900;8.594;2024-01-27T00:36:28;5.10;99.90
13980;DHT22;73871;49.900;8.594;2024-01-27T00:38:55;4.90;99.90
13980;DHT22;73871;49.900;8.594;2024-01-27T00:41:22;4.70;99.90
13980;DHT22;73871;49.900;8.594;2024-01-27T00:43:48;4.60;99.90
13980;DHT22;73871;49.900;8.594;2024-01-27T00:46:15;4.50;99.90
13980;DHT22;73871;49.900;8.594;2024-01-27T00:48:42;4.40;99.90
13980;DHT22;73871;49.900;8.594;2024-01-27T00:51:09;4.30;99.90
13980;DHT22;73871;49.900;8.594;2024-01-27T00:53:36;4.30;99.90
13980;DHT22;73871;49.900;8.594;2024-01-27T00:56:03;4.20;99.90
13980;DHT22;73871;49.900;8.594;2024-01-27T00:58:29;4.20;99.90
13980;DHT22;73871;49.900;8.594;2024-01-27T01:00:56;4.10;99.90
13980;DHT22;73871;49.900;8.594;2024-01-27T01:03:23;4.10;99.90
13980;DHT22;73871;49.900;8.594;2024-01-27T01:05:50;4.00;99.90
13980;DHT22;73871;49.900;8.594;2024-01-27T01:08:17;3.90;99.90
13980;DHT22;73871;49.900;8.594;2024-01-27T01:10:44;3.90;99.90
13980;DHT22;73871;49.900;8.594;2024-01-27T01:13:11;3.90;99.90
13980;DHT22;73871;49.900;8.594;2024-01-27T01:15:37;3.80;99.90
13980;DHT22;73871;49.900;8.594;2024-01-27T01:18:06;3.80;99.90
13980;DHT22;73871;49.900;8.594;2024-01-27T01:20:33;3.70;99.90
13980;DHT22;73871;49.900;8.594;2024-01-27T01:22:59;3.60;99.90
13980;DHT22;73871;49.900;8.594;2024-01-27T01:25:26;3.60;99.90
13980;DHT22;73871;49.900;8.594;2024-01-27T01:27:53;3.50;99.90
13980;DHT22;73871;49.900;8.594;2024-01-27T01:30:20;3.40;99.90
13980;DHT22;73871;49.900;8.594;2024-01-27T01:32:47;3.30;99.90
13980;DHT22;73871;49.900;8.594;2024-01-27T01:35:14;3.10;99.90
13980;DHT22;73871;49.900;8.594;2024-01-27T01:37:41;2.90;99.90
13980;DHT22;73871;49.900;8.594;2024-01-27T01:40:08;2.80;99.90
13980;DHT22;73871;49.900;8.594;2024-01-27T01:42:35;2.70;99.90
13980;DHT22;73871;49.900;8.594;2024-01-27T01:45:02;2.80;99.90
13980;DHT22;73871;49.900;8.594;2024-01-27T01:47:29;2.80;99.90
13980;DHT22;73871;49.900;8.594;2024-01-27T01:49:56;2.70;99.90
13980;DHT22;73871;49.900;8.594;2024-01-27T01:52:23;2.60;99.90
13980;DHT22;73871;49.900;8.594;2024-01-27T01:54:50;2.60;99.90
13980;DHT22;73871;49.900;8.594;2024-01-27T01:57:17;2.60;99.90
13980;DHT22;73871;49.900;8.594;2024-01-27T01:59:44;2.60;99.90
13980;DHT22;73871;49.900;8.594;2024-01-27T02:02:12;2.60;99.90
13980;DHT22;73871;49.900;8.594;2024-01-27T02:04:43;2.50;99.90
13980;DHT22;73871;49.900;8.594;2024-01-27T02:07:10;2.50;99.90
13980;DHT22;73871;49.900;8.594;2024-01-27T02:09:37;2.50;99.90
13980;DHT22;73871;49.900;8.594;2024-01-27T02:12:04;2.50;99.90
13980;DHT22;73871;49.900;8.594;2024-01-27T02:14:31;2.60;99.90
13980;DHT22;73871;49.900;8.594;2024-01-27T02:16:58;2.50;99.90
13980;DHT22;73871;49.900;8.594;2024-01-27T02:19:25;2.50;99.90
13980;DHT22;73871;49.900;8.594;2024-01-27T02:21:52;2.50;99.90
13980;DHT22;73871;49.900;8.594;2024-01-27T02:24:18;2.50;99.90
13980;DHT22;73871;49.900;8.594;2024-01-27T02:26:45;2.50;99.90
13980;DHT22;73871;49.900;8.594;2024-01-27T02:29:12;2.60;99.90
13980;DHT22;73871;49.900;8.594;2024-01-27T02:31:39;2.50;99.90
13980;DHT22;73871;49.900;8.594;2024-01-27T02:34:05;2.40;99.90
13980;DHT22;73871;49.900;8.594;2024-01-27T02:36:32;2.50;99.90
13980;DHT22;73871;49.900;8.594;2024-01-27T02:38:59;2.50;99.90
13980;DHT22;73871;49.900;8.594;2024-01-27T02:41:26;2.40;99.90
13980;DHT22;73871;49.900;8.594;2024-01-27T02:43:53;2.40;99.90
13980;DHT22;73871;49.900;8.594;2024-01-27T02:46:20;2.40;99.90
13980;DHT22;73871;49.900;8.594;2024-01-27T02:48:46;2.30;99.90
13980;DHT22;73871;49.900;8.594;2024-01-27T02:51:19;2.20;99.90
13980;DHT22;73871;49.900;8.594;2024-01-27T02:53:45;2.20;99.90
13980;DHT22;73871;49.900;8.594;2024-01-27T02:56:12;2.10;99.90
13980;DHT22;73871;49.900;8.594;2024-01-27T03:42:57;2.10;99.90
13980;DHT22;73871;49.900;8.594;2024-01-27T03:45:24;2.20;99.90
13980;DHT22;73871;49.900;8.594;2024-01-27T03:47:51;2.00;99.90
13980;DHT22;73871;49.900;8.594;2024-01-27T03:50:19;2.00;99.90
13980;DHT22;73871;49.900;8.594;2024-01-27T03:52:46;2.00;99.90
13980;DHT22;73871;49.900;8.594;2024-01-27T03:55:12;2.00;99.90
13980;DHT22;73871;49.900;8.594;2024-01-27T03:57:39;2.00;99.90
13980;DHT22;73871;49.900;8.594;2024-01-27T04:00:06;2.00;99.90
13980;DHT22;73871;49.900;8.594;2024-01-27T04:02:34;1.90;99.90
13980;DHT22;73871;49.900;8.594;2024-01-27T04:05:00;1.90;99.90
13980;DHT22;73871;49.900;8.594;2024-01-27T04:07:27;1.90;99.90
13980;DHT22;73871;49.900;8.594;2024-01-27T04:09:54;1.90;99.90
13980;DHT22;73871;49.900;8.594;2024-01-27T04:12:21;1.90;99.90
13980;DHT22;73871;49.900;8.594;2024-01-27T04:14:47;2.00;99.90
13980;DHT22;73871;49.900;8.594;2024-01-27T04:17:14;2.00;99.90
13980;DHT22;73871;49.900;8.594;2024-01-27T04:19:41;2.00;99.90
13980;DHT22;73871;49.900;8.594;2024-01-27T04:22:08;1.90;99.90
13980;DHT22;73871;49.900;8.594;2024-01-27T04:24:34;1.90;99.90
13980;DHT22;73871;49.900;8.594;2024-01-27T04:27:01;1.90;99.90
13980;DHT22;73871;49.900;8.594;2024-01-27T04:29:29;1.90;99.90
13980;DHT22;73871;49.900;8.594;2024-01-27T04:31:55;1.90;99.90
13980;DHT22;73871;49.900;8.594;2024-01-27T04:34:22;1.90;99.90
13980;DHT22;73871;49.900;8.594;2024-01-27T04:36:49;1.90;99.90
13980;DHT22;73871;49.900;8.594;2024-01-27T04:39:16;1.90;99.90
13980;DHT22;73871;49.900;8.594;2024-01-27T04:41:43;1.90;99.90
13980;DHT22;73871;49.900;8.594;2024-01-27T04:44:11;1.80;99.90
13980;DHT22;73871;49.900;8.594;2024-01-27T04:46:37;1.80;99.90
13980;DHT22;73871;49.900;8.594;2024-01-27T04:49:04;1.70;99.90
13980;DHT22;73871;49.900;8.594;2024-01-27T04:51:31;1.70;99.90
13980;DHT22;73871;49.900;8.594;2024-01-27T04:53:58;1.70;99.90
13980;DHT22;73871;49.900;8.594;2024-01-27T04:56:24;1.70;99.90
13980;DHT22;73871;49.900;8.594;2024-01-27T04:58:51;1.70;99.90
13980;DHT22;73871;49.900;8.594;2024-01-27T05:01:18;1.60;99.90
13980;DHT22;73871;49.900;8.594;2024-01-27T05:03:45;1.60;99.90
13980;DHT22;73871;49.900;8.594;2024-01-27T05:06:11;1.50;99.90
13980;DHT22;73871;49.900;8.594;2024-01-27T05:08:39;1.50;99.90
13980;DHT22;73871;49.900;8.594;2024-01-27T05:11:06;1.50;99.90
13980;DHT22;73871;49.900;8.594;2024-01-27T05:13:33;1.50;99.90
13980;DHT22;73871;49.900;8.594;2024-01-27T05:16:00;1.40;99.90
13980;DHT22;73871;49.900;8.594;2024-01-27T05:18:26;1.40;99.90
13980;DHT22;73871;49.900;8.594;2024-01-27T05:20:53;1.50;99.90
13980;DHT22;73871;49.900;8.594;2024-01-27T05:23:20;1.50;99.90
13980;DHT22;73871;49.900;8.594;2024-01-27T05:25:47;1.40;99.90
13980;DHT22;73871;49.900;8.594;2024-01-27T05:28:13;1.50;99.90
13980;DHT22;73871;49.900;8.594;2024-01-27T05:30:40;1.40;99.90
13980;DHT22;73871;49.900;8.594;2024-01-27T05:33:07;1.40;99.90
13980;DHT22;73871;49.900;8.594;2024-01-27T05:35:34;1.30;99.90
13980;DHT22;73871;49.900;8.594;2024-01-27T05:38:01;1.40;99.90
13980;DHT22;73871;49.900;8.594;2024-01-27T05:40:27;1.40;99.90
13980;DHT22;73871;49.900;8.594;2024-01-27T05:42:54;1.30;99.90
13980;DHT22;73871;49.900;8.594;2024-01-27T05:45:21;1.30;99.90
13980;DHT22;73871;49.900;8.594;2024-01-27T05:47:49;1.30;99.90
13980;DHT22;73871;49.900;8.594;2024-01-27T05:50:17;1.40;99.90
13980;DHT22;73871;49.900;8.594;2024-01-27T05:52:44;1.30;99.90
13980;DHT22;73871;49.900;8.594;2024-01-27T05:55:10;1.30;99.90
13980;DHT22;73871;49.900;8.594;2024-01-27T05:57:39;1.30;99.90
13980;DHT22;73871;49.900;8.594;2024-01-27T06:00:06;1.30;99.90
13980;DHT22;73871;49.900;8.594;2024-01-27T06:02:36;1.20;99.90
13980;DHT22;73871;49.900;8.594;2024-01-27T06:05:03;1.20;99.90
13980;DHT22;73871;49.900;8.594;2024-01-27T06:07:30;1.20;99.90
13980;DHT22;73871;49.900;8.594;2024-01-27T06:09:57;1.10;99.90
13980;DHT22;73871;49.900;8.594;2024-01-27T06:12:24;1.10;99.90
13980;DHT22;73871;49.900;8.594;2024-01-27T06:14:51;1.20;99.90
13980;DHT22;73871;49.900;8.594;2024-01-27T06:17:18;1.20;99.90
13980;DHT22;73871;49.900;8.594;2024-01-27T06:19:45;1.20;99.90
13980;DHT22;73871;49.900;8.594;2024-01-27T06:22:12;1.20;99.90
13980;DHT22;73871;49.900;8.594;2024-01-27T06:24:43;1.20;99.90
13980;DHT22;73871;49.900;8.594;2024-01-27T06:27:11;1.10;99.90
13980;DHT22;73871;49.900;8.594;2024-01-27T06:29:38;1.00;99.90
13980;DHT22;73871;49.900;8.594;2024-01-27T06:32:06;1.00;99.90
13980;DHT22;73871;49.900;8.594;2024-01-27T06:34:36;0.90;99.90
13980;DHT22;73871;49.900;8.594;2024-01-27T06:37:03;0.80;99.90
13980;DHT22;73871;49.900;8.594;2024-01-27T06:44:26;1.00;99.90
13980;DHT22;73871;49.900;8.594;2024-01-27T06:46:52;0.90;99.90
13980;DHT22;73871;49.900;8.594;2024-01-27T06:49:19;1.00;99.90
13980;DHT22;73871;49.900;8.594;2024-01-27T06:51:46;1.10;99.90
13980;DHT22;73871;49.900;8.594;2024-01-27T06:54:13;1.20;99.90
13980;DHT22;73871;49.900;8.594;2024-01-27T06:56:40;1.20;99.90
13980;DHT22;73871;49.900;8.594;2024-01-27T06:59:07;1.10;99.90
13980;DHT22;73871;49.900;8.594;2024-01-27T07:01:33;1.20;99.90
13980;DHT22;73871;49.900;8.594;2024-01-27T07:04:00;1.30;99.90
13980;DHT22;73871;49.900;8.594;2024-01-27T07:06:27;1.20;99.90
13980;DHT22;73871;49.900;8.594;2024-01-27T07:08:54;1.30;99.90
13980;DHT22;73871;49.900;8.594;2024-01-27T07:11:21;1.20;99.90
13980;DHT22;73871;49.900;8.594;2024-01-27T07:13:47;1.20;99.90
13980;DHT22;73871;49.900;8.594;2024-01-27T07:16:14;1.10;99.90
13980;DHT22;73871;49.900;8.594;2024-01-27T07:18:41;1.10;99.90
13980;DHT22;73871;49.900;8.594;2024-01-27T07:21:08;1.00;99.90
13980;DHT22;73871;49.900;8.594;2024-01-27T07:23:35;1.00;99.90
13980;DHT22;73871;49.900;8.594;2024-01-27T07:26:02;1.00;99.90
13980;DHT22;73871;49.900;8.594;2024-01-27T07:28:30;1.00;99.90
13980;DHT22;73871;49.900;8.594;2024-01-27T07:30:57;1.00;99.90
13980;DHT22;73871;49.900;8.594;2024-01-27T07:33:23;1.10;99.90
13980;DHT22;73871;49.900;8.594;2024-01-27T07:35:50;1.10;99.90
13980;DHT22;73871;49.900;8.594;2024-01-27T07:38:17;1.10;99.90
13980;DHT22;73871;49.900;8.594;2024-01-27T07:40:43;1.20;99.90
13980;DHT22;73871;49.900;8.594;2024-01-27T07:43:10;1.30;99.90
13980;DHT22;73871;49.900;8.594;2024-01-27T07:45:37;1.40;99.90
13980;DHT22;73871;49.900;8.594;2024-01-27T07:48:04;1.40;99.90
13980;DHT22;73871;49.900;8.594;2024-01-27T07:50:31;1.40;99.90
13980;DHT22;73871;49.900;8.594;2024-01-27T07:52:58;1.50;99.90
13980;DHT22;73871;49.900;8.594;2024-01-27T07:55:25;1.60;99.90
13980;DHT22;73871;49.900;8.594;2024-01-27T07:57:51;1.60;99.90
13980;DHT22;73871;49.900;8.594;2024-01-27T08:00:18;1.60;99.90
13980;DHT22;73871;49.900;8.594;2024-01-27T08:02:46;1.70;99.90
13980;DHT22;73871;49.900;8.594;2024-01-27T08:05:13;1.70;99.90
13980;DHT22;73871;49.900;8.594;2024-01-27T08:07:43;1.70;99.90
13980;DHT22;73871;49.900;8.594;2024-01-27T08:10:10;1.70;99.90
13980;DHT22;73871;49.900;8.594;2024-01-27T08:12:37;1.80;99.90
13980;DHT22;73871;49.900;8.594;2024-01-27T08:15:05;1.80;99.90
13980;DHT22;73871;49.900;8.594;2024-01-27T08:17:32;1.90;99.90
13980;DHT22;73871;49.900;8.594;2024-01-27T08:19:59;1.90;99.90
13980;DHT22;73871;49.900;8.594;2024-01-27T08:22:26;1.90;99.90
13980;DHT22;73871;49.900;8.594;2024-01-27T08:24:52;2.00;99.90
13980;DHT22;73871;49.900;8.594;2024-01-27T08:27:19;2.20;99.90
13980;DHT22;73871;49.900;8.594;2024-01-27T08:29:46;2.30;99.90
13980;DHT22;73871;49.900;8.594;2024-01-27T08:32:12;2.40;99.90
13980;DHT22;73871;49.900;8.594;2024-01-27T08:34:40;2.40;99.90
13980;DHT22;73871;49.900;8.594;2024-01-27T08:37:15;2.50;99.90
13980;DHT22;73871;49.900;8.594;2024-01-27T08:39:45;2.60;99.90
13980;DHT22;73871;49.900;8.594;2024-01-27T08:42:12;2.60;99.90
13980;DHT22;73871;49.900;8.594;2024-01-27T08:44:39;2.70;99.90
13980;DHT22;73871;49.900;8.594;2024-01-27T08:47:06;2.80;99.90
13980;DHT22;73871;49.900;8.594;2024-01-27T08:49:34;2.80;99.90
13980;DHT22;73871;49.900;8.594;2024-01-27T08:52:01;2.90;99.90
13980;DHT22;73871;49.900;8.594;2024-01-27T08:54:28;3.00;99.90
13980;DHT22;73871;49.900;8.594;2024-01-27T08:56:54;3.10;99.90
13980;DHT22;73871;49.900;8.594;2024-01-27T08:59:21;3.20;99.90
13980;DHT22;73871;49.900;8.594;2024-01-27T09:01:48;3.30;99.90
13980;DHT22;73871;49.900;8.594;2024-01-27T09:04:14;3.40;99.90
13980;DHT22;73871;49.900;8.594;2024-01-27T09:06:41;3.50;99.90
13980;DHT22;73871;49.900;8.594;2024-01-27T09:09:08;3.70;99.90
13980;DHT22;73871;49.900;8.594;2024-01-27T09:11:35;3.70;99.90
13980;DHT22;73871;49.900;8.594;2024-01-27T09:14:02;3.90;99.90
13980;DHT22;73871;49.900;8.594;2024-01-27T09:16:30;5.70;99.90
13980;DHT22;73871;49.900;8.594;2024-01-27T09:18:57;7.00;99.90
13980;DHT22;73871;49.900;8.594;2024-01-27T09:21:24;8.60;99.90
13980;DHT22;73871;49.900;8.594;2024-01-27T09:23:55;9.40;99.90
13980;DHT22;73871;49.900;8.594;2024-01-27T09:26:22;10.10;99.90
13980;DHT22;73871;49.900;8.594;2024-01-27T09:28:49;11.10;99.90
13980;DHT22;73871;49.900;8.594;2024-01-27T09:31:22;12.70;99.90
13980;DHT22;73871;49.900;8.594;2024-01-27T09:33:51;14.10;99.90
13980;DHT22;73871;49.900;8.594;2024-01-27T09:36:20;14.20;99.90
13980;DHT22;73871;49.900;8.594;2024-01-27T09:38:47;15.30;99.90
13980;DHT22;73871;49.900;8.594;2024-01-27T09:41:14;15.40;99.90
13980;DHT22;73871;49.900;8.594;2024-01-27T09:43:45;16.00;99.90
13980;DHT22;73871;49.900;8.594;2024-01-27T09:46:13;16.20;99.90
13980;DHT22;73871;49.900;8.594;2024-01-27T09:48:39;15.50;99.90
13980;DHT22;73871;49.900;8.594;2024-01-27T09:51:08;15.90;99.90
13980;DHT22;73871;49.900;8.594;2024-01-27T09:53:35;15.40;99.90
13980;DHT22;73871;49.900;8.594;2024-01-27T09:56:03;15.80;99.90
13980;DHT22;73871;49.900;8.594;2024-01-27T09:58:30;15.70;99.90
13980;DHT22;73871;49.900;8.594;2024-01-27T10:00:59;15.30;99.90
13980;DHT22;73871;49.900;8.594;2024-01-27T10:03:27;14.80;99.90
13980;DHT22;73871;49.900;8.594;2024-01-27T10:05:56;14.20;99.90
13980;DHT22;73871;49.900;8.594;2024-01-27T10:08:23;12.50;99.90
13980;DHT22;73871;49.900;8.594;2024-01-27T10:10:56;11.60;99.90
13980;DHT22;73871;49.900;8.594;2024-01-27T10:13:23;11.10;99.90
13980;DHT22;73871;49.900;8.594;2024-01-27T10:16:07;11.40;99.90
13980;DHT22;73871;49.900;8.594;2024-01-27T10:18:35;11.50;99.90
13980;DHT22;73871;49.900;8.594;2024-01-27T10:21:15;10.60;99.90
13980;DHT22;73871;49.900;8.594;2024-01-27T10:23:43;10.50;99.90
13980;DHT22;73871;49.900;8.594;2024-01-27T10:26:10;10.50;99.90
13980;DHT22;73871;49.900;8.594;2024-01-27T10:28:37;10.50;99.90
13980;DHT22;73871;49.900;8.594;2024-01-27T10:31:10;10.70;99.90
13980;DHT22;73871;49.900;8.594;2024-01-27T10:33:38;10.80;99.90
13980;DHT22;73871;49.900;8.594;2024-01-27T10:36:05;10.40;99.90
13980;DHT22;73871;49.900;8.594;2024-01-27T10:38:38;10.40;99.90
13980;DHT22;73871;49.900;8.594;2024-01-27T10:41:09;10.50;99.90
13980;DHT22;73871;49.900;8.594;2024-01-27T10:43:39;10.20;99.90
13980;DHT22;73871;49.900;8.594;2024-01-27T10:46:08;10.20;99.90
13980;DHT22;73871;49.900;8.594;2024-01-27T10:48:35;10.50;99.90
13980;DHT22;73871;49.900;8.594;2024-01-27T10:51:07;10.30;99.90
13980;DHT22;73871;49.900;8.594;2024-01-27T10:53:35;10.40;99.90
13980;DHT22;73871;49.900;8.594;2024-01-27T10:56:04;10.50;99.90
13980;DHT22;73871;49.900;8.594;2024-01-27T10:58:37;10.40;99.90
13980;DHT22;73871;49.900;8.594;2024-01-27T11:01:11;10.30;99.90
13980;DHT22;73871;49.900;8.594;2024-01-27T11:03:40;10.10;99.90
13980;DHT22;73871;49.900;8.594;2024-01-27T11:06:08;10.30;99.90
13980;DHT22;73871;49.900;8.594;2024-01-27T11:08:36;10.10;99.90
13980;DHT22;73871;49.900;8.594;2024-01-27T11:11:09;9.70;99.90
13980;DHT22;73871;49.900;8.594;2024-01-27T11:13:37;9.60;99.90
13980;DHT22;73871;49.900;8.594;2024-01-27T11:16:04;9.20;99.90
13980;DHT22;73871;49.900;8.594;2024-01-27T11:18:31;9.20;99.90
13980;DHT22;73871;49.900;8.594;2024-01-27T11:20:59;9.20;99.90
13980;DHT22;73871;49.900;8.594;2024-01-27T11:23:33;9.30;99.90
13980;DHT22;73871;49.900;8.594;2024-01-27T11:26:08;9.10;99.90
13980;DHT22;73871;49.900;8.594;2024-01-27T11:28:36;9.00;99.90
13980;DHT22;73871;49.900;8.594;2024-01-27T11:31:04;9.10;99.90
13980;DHT22;73871;49.900;8.594;2024-01-27T11:33:31;9.00;99.90
13980;DHT22;73871;49.900;8.594;2024-01-27T11:36:02;9.00;99.90
13980;DHT22;73871;49.900;8.594;2024-01-27T11:38:30;9.10;99.90
13980;DHT22;73871;49.900;8.594;2024-01-27T11:40:59;9.00;99.90
13980;DHT22;73871;49.900;8.594;2024-01-27T11:43:26;8.90;99.90
13980;DHT22;73871;49.900;8.594;2024-01-27T11:45:57;8.90;99.90
13980;DHT22;73871;49.900;8.594;2024-01-27T11:48:24;8.90;99.90
13980;DHT22;73871;49.900;8.594;2024-01-27T11:51:06;9.00;99.90
13980;DHT22;73871;49.900;8.594;2024-01-27T11:53:33;9.10;99.90
13980;DHT22;73871;49.900;8.594;2024-01-27T11:56:00;9.10;99.90
13980;DHT22;73871;49.900;8.594;2024-01-27T11:58:28;9.20;99.90
13980;DHT22;73871;49.900;8.594;2024-01-27T12:00:57;9.30;99.90
13980;DHT22;73871;49.900;8.594;2024-01-27T12:03:25;9.30;99.90
13980;DHT22;73871;49.900;8.594;2024-01-27T12:05:52;9.40;99.90
13980;DHT22;73871;49.900;8.594;2024-01-27T12:08:19;9.50;99.90
13980;DHT22;73871;49.900;8.594;2024-01-27T12:10:46;9.50;99.90
13980;DHT22;73871;49.900;8.594;2024-01-27T12:13:13;9.40;99.90
13980;DHT22;73871;49.900;8.594;2024-01-27T12:15:43;9.50;99.90
13980;DHT22;73871;49.900;8.594;2024-01-27T12:18:10;9.40;99.90
13980;DHT22;73871;49.900;8.594;2024-01-27T12:20:37;9.20;99.90
13980;DHT22;73871;49.900;8.594;2024-01-27T12:23:08;9.10;99.90
13980;DHT22;73871;49.900;8.594;2024-01-27T12:25:34;9.10;99.90
13980;DHT22;73871;49.900;8.594;2024-01-27T12:28:05;9.10;99.90
13980;DHT22;73871;49.900;8.594;2024-01-27T12:30:34;9.00;99.90
13980;DHT22;73871;49.900;8.594;2024-01-27T12:33:01;9.00;99.90
13980;DHT22;73871;49.900;8.594;2024-01-27T12:35:29;9.10;99.90
13980;DHT22;73871;49.900;8.594;2024-01-27T12:37:56;9.30;99.90
13980;DHT22;73871;49.900;8.594;2024-01-27T12:40:26;9.40;99.90
13980;DHT22;73871;49.900;8.594;2024-01-27T12:42:53;9.30;99.90
13980;DHT22;73871;49.900;8.594;2024-01-27T12:45:20;9.20;99.90
13980;DHT22;73871;49.900;8.594;2024-01-27T12:47:47;9.30;99.90
13980;DHT22;73871;49.900;8.594;2024-01-27T12:50:14;9.30;99.90
13980;DHT22;73871;49.900;8.594;2024-01-27T12:52:42;9.30;99.90
13980;DHT22;73871;49.900;8.594;2024-01-27T12:55:09;9.40;99.90
13980;DHT22;73871;49.900;8.594;2024-01-27T12:57:35;9.30;99.90
13980;DHT22;73871;49.900;8.594;2024-01-27T13:00:03;9.30;99.90
13980;DHT22;73871;49.900;8.594;2024-01-27T13:02:36;9.10;99.90
13980;DHT22;73871;49.900;8.594;2024-01-27T13:05:04;9.20;99.90
13980;DHT22;73871;49.900;8.594;2024-01-27T13:07:31;9.20;99.90
13980;DHT22;73871;49.900;8.594;2024-01-27T13:10:00;9.20;99.90
13980;DHT22;73871;49.900;8.594;2024-01-27T13:12:27;9.20;99.90
13980;DHT22;73871;49.900;8.594;2024-01-27T13:14:54;9.20;99.90
13980;DHT22;73871;49.900;8.594;2024-01-27T13:17:22;9.20;99.90
13980;DHT22;73871;49.900;8.594;2024-01-27T13:19:48;9.30;99.90
13980;DHT22;73871;49.900;8.594;2024-01-27T13:22:15;9.30;99.90
13980;DHT22;73871;49.900;8.594;2024-01-27T13:24:42;9.40;99.90
13980;DHT22;73871;49.900;8.594;2024-01-27T13:27:10;9.40;99.90
13980;DHT22;73871;49.900;8.594;2024-01-27T13:29:37;9.30;99.90
13980;DHT22;73871;49.900;8.594;2024-01-27T13:32:04;9.40;99.90
13980;DHT22;73871;49.900;8.594;2024-01-27T13:34:31;9.40;99.90
13980;DHT22;73871;49.900;8.594;2024-01-27T13:36:59;9.30;99.90
13980;DHT22;73871;49.900;8.594;2024-01-27T13:39:29;9.20;99.90
13980;DHT22;73871;49.900;8.594;2024-01-27T13:41:56;9.30;99.90
13980;DHT22;73871;49.900;8.594;2024-01-27T13:44:22;9.30;99.90
13980;DHT22;73871;49.900;8.594;2024-01-27T13:46:49;9.30;99.90
13980;DHT22;73871;49.900;8.594;2024-01-27T13:49:16;9.20;99.90
13980;DHT22;73871;49.900;8.594;2024-01-27T13:51:43;9.10;99.90
13980;DHT22;73871;49.900;8.594;2024-01-27T13:54:10;9.10;99.90
13980;DHT22;73871;49.900;8.594;2024-01-27T13:56:36;9.00;99.90
13980;DHT22;73871;49.900;8.594;2024-01-27T13:59:03;9.00;99.90
13980;DHT22;73871;49.900;8.594;2024-01-27T14:01:31;9.00;99.90
13980;DHT22;73871;49.900;8.594;2024-01-27T14:03:58;8.90;99.90
13980;DHT22;73871;49.900;8.594;2024-01-27T14:06:24;8.90;99.90
13980;DHT22;73871;49.900;8.594;2024-01-27T14:08:51;8.80;99.90
13980;DHT22;73871;49.900;8.594;2024-01-27T14:11:18;8.80;99.90
13980;DHT22;73871;49.900;8.594;2024-01-27T14:13:45;8.60;99.90
13980;DHT22;73871;49.900;8.594;2024-01-27T14:16:12;8.50;99.90
13980;DHT22;73871;49.900;8.594;2024-01-27T14:18:39;8.40;99.90
13980;DHT22;73871;49.900;8.594;2024-01-27T14:21:06;8.30;99.90
13980;DHT22;73871;49.900;8.594;2024-01-27T14:23:33;8.40;99.90
13980;DHT22;73871;49.900;8.594;2024-01-27T14:25:59;8.30;99.90
13980;DHT22;73871;49.900;8.594;2024-01-27T14:28:26;8.20;99.90
13980;DHT22;73871;49.900;8.594;2024-01-27T14:30:53;8.10;99.90
13980;DHT22;73871;49.900;8.594;2024-01-27T14:33:20;8.00;99.90
13980;DHT22;73871;49.900;8.594;2024-01-27T14:35:48;7.90;99.90
13980;DHT22;73871;49.900;8.594;2024-01-27T14:38:15;7.80;99.90
13980;DHT22;73871;49.900;8.594;2024-01-27T14:40:41;7.70;99.90
13980;DHT22;73871;49.900;8.594;2024-01-27T14:43:08;7.60;99.90
13980;DHT22;73871;49.900;8.594;2024-01-27T14:45:36;7.50;99.90
13980;DHT22;73871;49.900;8.594;2024-01-27T14:48:04;7.40;99.90
13980;DHT22;73871;49.900;8.594;2024-01-27T14:50:32;7.40;99.90
13980;DHT22;73871;49.900;8.594;2024-01-27T14:52:59;7.30;99.90
13980;DHT22;73871;49.900;8.594;2024-01-27T14:55:25;7.30;99.90
13980;DHT22;73871;49.900;8.594;2024-01-27T14:57:53;7.20;99.90
13980;DHT22;73871;49.900;8.594;2024-01-27T15:00:20;7.20;99.90
13980;DHT22;73871;49.900;8.594;2024-01-27T15:02:47;7.10;99.90
13980;DHT22;73871;49.900;8.594;2024-01-27T15:05:14;7.10;99.90
13980;DHT22;73871;49.900;8.594;2024-01-27T15:07:42;7.10;99.90
13980;DHT22;73871;49.900;8.594;2024-01-27T15:10:09;7.10;99.90
13980;DHT22;73871;49.900;8.594;2024-01-27T15:12:36;7.00;99.90
13980;DHT22;73871;49.900;8.594;2024-01-27T15:15:04;7.00;99.90
13980;DHT22;73871;49.900;8.594;2024-01-27T15:17:31;6.90;99.90
13980;DHT22;73871;49.900;8.594;2024-01-27T15:19:57;6.90;99.90
13980;DHT22;73871;49.900;8.594;2024-01-27T15:22:24;6.90;99.90
13980;DHT22;73871;49.900;8.594;2024-01-27T15:24:51;6.80;99.90
13980;DHT22;73871;49.900;8.594;2024-01-27T15:27:19;6.80;99.90
13980;DHT22;73871;49.900;8.594;2024-01-27T15:29:46;6.80;99.90
13980;DHT22;73871;49.900;8.594;2024-01-27T15:32:13;6.70;99.90
13980;DHT22;73871;49.900;8.594;2024-01-27T15:34:46;6.70;99.90
13980;DHT22;73871;49.900;8.594;2024-01-27T15:37:13;6.70;99.90
13980;DHT22;73871;49.900;8.594;2024-01-27T15:39:40;6.60;99.90
13980;DHT22;73871;49.900;8.594;2024-01-27T15:42:07;6.50;99.90
13980;DHT22;73871;49.900;8.594;2024-01-27T15:44:34;6.50;99.90
13980;DHT22;73871;49.900;8.594;2024-01-27T15:47:00;6.50;99.90
13980;DHT22;73871;49.900;8.594;2024-01-27T15:49:28;6.40;99.90
13980;DHT22;73871;49.900;8.594;2024-01-27T15:51:55;6.40;99.90
13980;DHT22;73871;49.900;8.594;2024-01-27T15:54:21;6.30;99.90
13980;DHT22;73871;49.900;8.594;2024-01-27T15:56:48;6.30;99.90
13980;DHT22;73871;49.900;8.594;2024-01-27T15:59:15;6.40;99.90
13980;DHT22;73871;49.900;8.594;2024-01-27T16:01:42;6.40;99.90
13980;DHT22;73871;49.900;8.594;2024-01-27T16:04:09;6.30;99.90
13980;DHT22;73871;49.900;8.594;2024-01-27T16:06:36;6.20;99.90
13980;DHT22;73871;49.900;8.594;2024-01-27T16:09:03;6.10;99.90
13980;DHT22;73871;49.900;8.594;2024-01-27T16:11:30;5.90;99.90
13980;DHT22;73871;49.900;8.594;2024-01-27T16:13:57;5.80;99.90
13980;DHT22;73871;49.900;8.594;2024-01-27T16:16:24;5.70;99.90
13980;DHT22;73871;49.900;8.594;2024-01-27T16:18:52;5.50;99.90
13980;DHT22;73871;49.900;8.594;2024-01-27T16:21:19;5.40;99.90
13980;DHT22;73871;49.900;8.594;2024-01-27T16:23:46;5.30;99.90
13980;DHT22;73871;49.900;8.594;2024-01-27T16:26:13;5.20;99.90
13980;DHT22;73871;49.900;8.594;2024-01-27T16:28:40;5.10;99.90
13980;DHT22;73871;49.900;8.594;2024-01-27T16:31:07;5.10;99.90
13980;DHT22;73871;49.900;8.594;2024-01-27T16:33:36;5.00;99.90
13980;DHT22;73871;49.900;8.594;2024-01-27T16:36:03;5.00;99.90